Milborne Port, United Kingdom
Current Conditions -  °F | °C
As of 8:15 AM on Friday 24 Oct 2014 (Local Time) from EGDY Reporting Station
Broken Clouds Broken Clouds  
Wind Chill: 14°   Ceiling: 4000
Heat Index: 14°   Visibility: 6mi
Dew Point: 13°   Wind: 6mph
Humidity: 94%   Direction: 170°S
Pressure: 29.94"   Gusts: NA
Location:  50.97°N, 2.46°W
Report Text: EGDY 240715Z 17005KT 9999 FEW010 BKN040 14/13 Q1014 BLU TEMPO SCT020 WHT
Loading
Personal Weather Stations






























Interactive Weather Map
Tropical Storm Tracking
New forecast layout! Learn more

10-Day Weather Forecast

Advertisements
Track Severe Weather on mobile